Aeroporto :
LOGIN :

Iscrizione | Disclaimer

   EN    FR    IT 

 










Sommario :    VFR   VFR Marginale   IFR   IFR Intensivo   IFR Molto Intensivo
Visibilità : 
Base nubi : 
>= 8 km
>= 3000ft
5 / 8 km
1000 / 3000 ft
1500m / 5 km
500 / 1000 ft
800 / 1500m
200 / 500 ft
< 800m
< 200 ft
Simboli :   Temporali  Nebbia  Neve Forte  Precipitazioni Forti  Vento > 20 kt
SIGMETs :   Varie  Temporali  Ghiacco  Turbolenza  Onda orograficha  Ceneri Vulcaniche






- Altitudine del aeroporto : 70 ft
- Codice IATA : LEI


LEAM - Almeria

ULTIMO METAR :
  • 300630Z 00000KT CAVOK 13/10 Q1012

METARs OBSOLETI :
  • 300600Z 34003KT CAVOK 13/10 Q1012
  • 300530Z 32003KT 280V340 CAVOK 13/10 Q1012
  • 300500Z 32004KT CAVOK 13/09 Q1012
  • 300430Z 31004KT CAVOK 13/09 Q1012
  • 300400Z 31003KT CAVOK 12/10 Q1012

TAF TAF LEAM
Valido dal 30 a 03 ore il 31 a 03 ore UTC


300200Z 3003/3103 34006KT CAVOK TX19/3014Z TN11/3006Z
BECMG 3008/3010 22010KT
BECMG 3019/3021 07006KT



MetMap, La meteo Aeronautica in un colpo d'occhio ! - Copyright ORBIFLY Dicembre 2007 - Disclaimer

ORBIFLY MET'MAP TEAM :

Programmazione e sviluppo : Alexandra Zaïnal
Concezione : Baudouin d'Aumeries
Aiuto per la programmazione : Marc-Olivier Méhu
Supporto tecnico e logistico : Manuel Goepfert
Aiuto per la traduzione : Arnaldo La Scala

Contatto : metmap@orbifly.com




FONTI E CREDITI :

   NOAA